Time;durP1;ratioP1;P1;durP2;ratioP2;P2;SDS_P1;SDS_P2;PMS_P1;PMS_P2;Temp;Humidity;BMP_temperature;BMP_pressure;BME280_temperature;BME280_humidity;BME280_pressure;Samples;Min_cycle;Max_cycle;Signal;HPM_P1;HPM_P2
2021/06/17 00:00:01;;;;;;;28.42;7.47;;;21.50;99.90;;;;;;5076693;28;20025;-94
2021/06/17 00:02:27;;;;;;;28.73;7.57;;;21.50;99.90;;;;;;5076805;28;20489;-95
2021/06/17 00:04:53;;;;;;;27.52;7.50;;;21.50;99.90;;;;;;5083320;28;20045;-94
2021/06/17 00:07:18;;;;;;;29.08;7.38;;;21.50;99.90;;;;;;5084883;28;20056;-94
2021/06/17 00:09:44;;;;;;;20.98;7.30;;;21.50;99.90;;;;;;5051363;28;20032;-94
2021/06/17 00:12:10;;;;;;;28.48;7.60;;;21.50;99.90;;;;;;5048323;28;20027;-94
2021/06/17 00:14:36;;;;;;;27.48;8.02;;;21.50;99.90;;;;;;5051233;28;20532;-92
2021/06/17 00:17:02;;;;;;;26.33;7.50;;;21.50;99.90;;;;;;5052042;28;20060;-92
2021/06/17 00:19:29;;;;;;;22.77;7.68;;;21.50;99.90;;;;;;5045697;28;20030;-91
2021/06/17 00:21:55;;;;;;;27.42;7.30;;;21.50;99.90;;;;;;5083970;28;20087;-90
2021/06/17 00:24:21;;;;;;;25.20;6.97;;;21.50;99.90;;;;;;5046177;28;20021;-88
2021/06/17 00:26:50;;;;;;;26.40;6.90;;;21.50;99.90;;;;;;5051266;28;20025;-88
2021/06/17 00:29:17;;;;;;;24.60;7.63;;;21.60;99.90;;;;;;5048288;28;20028;-88
2021/06/17 00:31:43;;;;;;;26.50;7.75;;;21.50;99.90;;;;;;5051299;28;20028;-87
2021/06/17 00:34:09;;;;;;;30.92;7.40;;;21.50;99.90;;;;;;5039395;28;20025;-87
2021/06/17 00:36:36;;;;;;;34.80;8.00;;;21.60;99.90;;;;;;5051226;28;20017;-88
2021/06/17 00:39:08;;;;;;;33.53;7.97;;;21.60;99.90;;;;;;5045378;28;20013;-86
2021/06/17 00:41:37;;;;;;;34.72;8.73;;;21.50;99.90;;;;;;5043157;28;20076;-87
2021/06/17 00:44:03;;;;;;;24.05;7.93;;;21.40;99.90;;;;;;5045182;28;20014;-87
2021/06/17 00:46:29;;;;;;;32.63;8.50;;;21.40;99.90;;;;;;5042863;28;20133;-87
2021/06/17 00:48:55;;;;;;;40.10;8.52;;;21.40;99.90;;;;;;5044334;28;20517;-86
2021/06/17 00:51:21;;;;;;;35.40;8.25;;;21.40;99.90;;;;;;5040112;28;20013;-85
2021/06/17 00:53:49;;;;;;;32.75;8.00;;;21.40;99.90;;;;;;5049683;28;20036;-85
2021/06/17 00:56:15;;;;;;;38.33;8.60;;;21.40;99.90;;;;;;5088164;28;20037;-85
2021/06/17 00:58:41;;;;;;;32.40;7.95;;;21.40;99.90;;;;;;5047838;28;20022;-85
2021/06/17 01:01:07;;;;;;;23.50;7.63;;;21.40;99.90;;;;;;5055119;28;20079;-85
2021/06/17 01:03:32;;;;;;;26.55;7.18;;;21.20;99.90;;;;;;5045058;28;20022;-85
2021/06/17 01:05:58;;;;;;;25.40;7.97;;;21.30;99.90;;;;;;5048298;28;20031;-85
2021/06/17 01:08:34;;;;;;;30.65;6.70;;;21.30;99.90;;;;;;5038254;28;20118;-85
2021/06/17 01:11:15;;;;;;;23.88;7.53;;;21.30;99.90;;;;;;5041789;28;20029;-85
2021/06/17 01:13:57;;;;;;;29.55;6.72;;;21.30;99.90;;;;;;5048538;28;20029;-85
2021/06/17 01:16:47;;;;;;;24.65;7.15;;;21.30;99.90;;;;;;5033837;28;20392;-85
2021/06/17 01:19:29;;;;;;;27.17;7.32;;;21.30;99.90;;;;;;5048785;28;20639;-85
2021/06/17 01:21:58;;;;;;;24.75;6.60;;;21.20;99.90;;;;;;5049792;28;20124;-85
2021/06/17 01:24:36;;;;;;;29.45;7.57;;;21.20;99.90;;;;;;5043236;28;20021;-84
2021/06/17 01:27:20;;;;;;;22.60;7.00;;;21.20;99.90;;;;;;5038299;28;20036;-84
2021/06/17 01:29:50;;;;;;;26.27;8.93;;;21.20;99.90;;;;;;5040343;28;20037;-84
2021/06/17 01:32:17;;;;;;;25.33;7.60;;;21.20;99.90;;;;;;5048660;28;20032;-84
2021/06/17 01:34:44;;;;;;;25.92;7.78;;;21.10;99.90;;;;;;5041540;28;20026;-84
2021/06/17 01:37:14;;;;;;;26.70;8.00;;;21.00;99.90;;;;;;5036534;28;20023;-84
2021/06/17 01:39:40;;;;;;;33.13;8.57;;;21.10;99.90;;;;;;5041956;28;20083;-84
2021/06/17 01:42:08;;;;;;;33.72;8.02;;;21.00;99.90;;;;;;5035573;28;20035;-84
2021/06/17 01:44:35;;;;;;;31.50;8.40;;;20.90;99.90;;;;;;5042961;28;20095;-84
2021/06/17 01:47:03;;;;;;;37.40;8.07;;;20.90;99.90;;;;;;5045771;28;20021;-84
2021/06/17 01:49:30;;;;;;;35.28;8.80;;;20.90;99.90;;;;;;5048661;28;20029;-84
2021/06/17 01:51:56;;;;;;;31.90;7.93;;;20.90;99.90;;;;;;5049532;28;20067;-84
2021/06/17 01:54:26;;;;;;;30.05;7.55;;;20.90;99.90;;;;;;5049667;28;20048;-84
2021/06/17 01:56:54;;;;;;;32.03;7.93;;;21.00;99.90;;;;;;5049129;28;20071;-84
2021/06/17 01:59:22;;;;;;;30.10;6.85;;;20.90;99.90;;;;;;5044319;28;20092;-84
2021/06/17 02:01:50;;;;;;;32.70;8.35;;;20.90;99.90;;;;;;5047042;28;20064;-84
2021/06/17 02:04:19;;;;;;;41.45;9.70;;;20.80;99.90;;;;;;5043112;28;20569;-84
2021/06/17 02:06:46;;;;;;;32.15;8.68;;;20.80;99.90;;;;;;5048343;28;20033;-84
2021/06/17 02:09:12;;;;;;;31.50;8.68;;;20.70;99.90;;;;;;5045540;28;20084;-84
2021/06/17 02:11:38;;;;;;;30.85;8.35;;;20.80;99.90;;;;;;5045170;28;20033;-84
2021/06/17 02:14:07;;;;;;;35.97;9.45;;;20.70;99.90;;;;;;5046630;28;20030;-84
2021/06/17 02:16:34;;;;;;;36.00;8.23;;;20.70;99.90;;;;;;5049797;28;20021;-84
2021/06/17 02:19:02;;;;;;;30.67;9.00;;;20.70;99.90;;;;;;5040228;28;20111;-83
2021/06/17 02:21:30;;;;;;;26.02;8.60;;;20.70;99.90;;;;;;5053243;28;20017;-84
2021/06/17 02:24:01;;;;;;;26.50;9.00;;;20.70;99.90;;;;;;5044406;28;20616;-84
2021/06/17 02:26:31;;;;;;;35.17;8.75;;;20.70;99.90;;;;;;5053624;28;20028;-84
2021/06/17 02:29:00;;;;;;;31.65;8.75;;;20.60;99.90;;;;;;5050981;28;20120;-83
2021/06/17 02:31:33;;;;;;;33.50;8.13;;;20.70;99.90;;;;;;5050892;28;20025;-84
2021/06/17 02:33:59;;;;;;;30.73;7.18;;;20.60;99.90;;;;;;5050352;28;20329;-84
2021/06/17 02:36:26;;;;;;;37.45;8.32;;;20.70;99.90;;;;;;5049858;28;20105;-84
2021/06/17 02:38:57;;;;;;;29.60;7.63;;;20.50;99.90;;;;;;5051521;28;20013;-84
2021/06/17 02:41:25;;;;;;;24.83;7.07;;;20.50;99.90;;;;;;5061949;28;20033;-84
2021/06/17 02:43:55;;;;;;;25.65;7.10;;;20.50;99.90;;;;;;5051532;28;20021;-84
2021/06/17 02:46:21;;;;;;;27.35;7.38;;;20.60;99.90;;;;;;5047149;28;20040;-83
2021/06/17 02:48:49;;;;;;;31.15;8.27;;;20.60;99.90;;;;;;5052048;28;20075;-84
2021/06/17 02:51:14;;;;;;;28.50;7.50;;;20.60;99.90;;;;;;5045703;28;20032;-84
2021/06/17 02:53:40;;;;;;;27.45;7.95;;;20.70;99.90;;;;;;5052518;28;20048;-84
2021/06/17 02:56:11;;;;;;;26.80;7.70;;;20.70;99.90;;;;;;5043571;28;20025;-84
2021/06/17 02:58:56;;;;;;;24.95;7.60;;;20.70;99.90;;;;;;5052432;28;20078;-84
2021/06/17 03:01:26;;;;;;;32.75;8.85;;;20.80;99.90;;;;;;5044986;28;20032;-84
2021/06/17 03:03:55;;;;;;;26.02;7.15;;;20.80;99.90;;;;;;5049878;28;20152;-84
2021/06/17 03:06:33;;;;;;;25.90;7.95;;;20.80;99.90;;;;;;5043797;28;20409;-84
2021/06/17 03:09:09;;;;;;;25.73;8.77;;;20.90;99.90;;;;;;5047366;28;20086;-84
2021/06/17 03:11:36;;;;;;;23.90;7.88;;;20.80;99.90;;;;;;5044526;28;20481;-84
2021/06/17 03:14:13;;;;;;;20.73;7.40;;;20.90;99.90;;;;;;5045064;28;20096;-84
2021/06/17 03:16:40;;;;;;;31.30;8.43;;;20.90;99.90;;;;;;5040150;28;20536;-84
2021/06/17 03:19:08;;;;;;;24.20;7.70;;;20.90;99.90;;;;;;5043721;28;20104;-84
2021/06/17 03:21:39;;;;;;;31.63;8.32;;;20.90;99.90;;;;;;5052729;28;20025;-84
2021/06/17 03:24:08;;;;;;;23.40;8.20;;;20.90;99.90;;;;;;5043195;28;20025;-83
2021/06/17 03:26:37;;;;;;;27.17;8.23;;;20.90;99.90;;;;;;5052426;28;20021;-84
2021/06/17 03:29:04;;;;;;;31.67;9.30;;;20.80;99.90;;;;;;5043356;28;20044;-84
2021/06/17 03:31:31;;;;;;;29.77;7.95;;;20.80;99.90;;;;;;5050195;28;20492;-85
2021/06/17 03:33:58;;;;;;;26.33;8.45;;;20.80;99.90;;;;;;5049625;28;20405;-84
2021/06/17 03:36:25;;;;;;;33.65;8.80;;;20.80;99.90;;;;;;5048439;28;20060;-83
2021/06/17 03:38:53;;;;;;;28.02;8.25;;;20.80;99.90;;;;;;5050515;28;20024;-83
2021/06/17 03:41:20;;;;;;;20.52;8.45;;;20.80;99.90;;;;;;5046904;28;20039;-83
2021/06/17 03:43:47;;;;;;;32.38;10.40;;;20.80;99.90;;;;;;5051262;28;20049;-83
2021/06/17 03:46:14;;;;;;;24.48;8.98;;;20.80;99.90;;;;;;5045375;28;20032;-84
2021/06/17 03:48:44;;;;;;;26.67;9.18;;;20.80;99.90;;;;;;5083265;28;20059;-83
2021/06/17 03:51:13;;;;;;;26.23;9.35;;;20.80;99.90;;;;;;5044021;28;20025;-84
2021/06/17 03:53:40;;;;;;;27.05;8.68;;;20.80;99.90;;;;;;5051180;28;20051;-83
2021/06/17 03:56:07;;;;;;;29.65;10.18;;;20.80;99.90;;;;;;5042618;28;20041;-84
2021/06/17 03:58:33;;;;;;;24.58;9.00;;;20.90;99.90;;;;;;5049823;28;20506;-84
2021/06/17 04:00:59;;;;;;;32.45;9.38;;;20.90;99.90;;;;;;5041845;28;20025;-83
2021/06/17 04:03:28;;;;;;;29.25;9.48;;;20.90;99.90;;;;;;5051107;28;20024;-84
2021/06/17 04:05:58;;;;;;;26.60;9.93;;;20.90;99.90;;;;;;5040845;28;20021;-84
2021/06/17 04:08:28;;;;;;;27.42;10.52;;;20.90;99.90;;;;;;5048996;28;20040;-84
2021/06/17 04:11:00;;;;;;;31.40;10.23;;;20.90;99.90;;;;;;5049930;28;20025;-84
2021/06/17 04:13:32;;;;;;;28.17;10.00;;;20.90;99.90;;;;;;5048925;28;20532;-84
2021/06/17 04:15:59;;;;;;;29.55;10.35;;;20.80;99.90;;;;;;5034886;28;20025;-83
2021/06/17 04:18:25;;;;;;;27.38;9.60;;;20.80;99.90;;;;;;5049290;28;20025;-83
2021/06/17 04:20:54;;;;;;;28.80;10.45;;;20.90;99.90;;;;;;5051692;28;20024;-83
2021/06/17 04:23:22;;;;;;;28.25;10.40;;;20.90;99.90;;;;;;5045303;28;20112;-83
2021/06/17 04:25:50;;;;;;;29.35;10.13;;;20.80;99.90;;;;;;5048754;28;20508;-84
2021/06/17 04:28:16;;;;;;;27.70;10.57;;;20.80;99.90;;;;;;5040106;28;20612;-84
2021/06/17 04:30:44;;;;;;;27.38;10.48;;;20.80;99.90;;;;;;5047668;28;20062;-84
2021/06/17 04:33:13;;;;;;;29.48;9.75;;;20.90;99.90;;;;;;5051014;28;20563;-83
2021/06/17 04:35:43;;;;;;;35.45;10.23;;;20.90;99.90;;;;;;5045532;28;20024;-84
2021/06/17 04:38:14;;;;;;;26.92;10.13;;;20.80;99.90;;;;;;5050622;28;20504;-84
2021/06/17 04:40:40;;;;;;;30.67;10.70;;;20.80;99.90;;;;;;5044916;28;20012;-84
2021/06/17 04:43:08;;;;;;;26.20;9.27;;;20.80;99.90;;;;;;5050375;28;20138;-83
2021/06/17 04:45:35;;;;;;;24.05;8.43;;;20.80;99.90;;;;;;5042445;28;20017;-83
2021/06/17 04:48:08;;;;;;;29.38;8.57;;;20.80;99.90;;;;;;5050662;28;20574;-83
2021/06/17 04:50:37;;;;;;;26.40;9.13;;;20.70;99.90;;;;;;5042820;28;20362;-83
2021/06/17 04:53:14;;;;;;;29.75;10.23;;;20.60;99.90;;;;;;5050270;28;20025;-83
2021/06/17 04:55:54;;;;;;;18.98;9.95;;;20.60;99.90;;;;;;5046725;28;20182;-84
2021/06/17 04:58:22;;;;;;;20.80;8.45;;;20.60;99.90;;;;;;5050191;28;20041;-83
2021/06/17 05:00:48;;;;;;;26.38;8.73;;;20.70;99.90;;;;;;5065752;28;20026;-84
2021/06/17 05:03:14;;;;;;;32.58;10.65;;;20.70;99.90;;;;;;5042959;28;20091;-84
2021/06/17 05:05:40;;;;;;;32.05;10.45;;;20.70;99.90;;;;;;5039966;28;20385;-83
2021/06/17 05:10:55;;;;;;;29.23;10.70;;;20.70;99.90;;;;;;5039285;28;20032;-83
2021/06/17 05:13:30;;;;;;;28.83;10.90;;;20.70;99.90;;;;;;5048108;28;20025;-84
2021/06/17 05:15:59;;;;;;;36.97;10.10;;;20.70;99.90;;;;;;5034014;28;20056;-85
2021/06/17 05:18:27;;;;;;;29.67;10.02;;;20.80;99.90;;;;;;5044330;28;20026;-84
2021/06/17 05:20:54;;;;;;;28.50;10.30;;;20.80;99.90;;;;;;5048158;28;20051;-85
2021/06/17 05:23:21;;;;;;;21.30;10.18;;;20.80;99.90;;;;;;5044580;28;20051;-85
2021/06/17 05:25:50;;;;;;;31.38;10.02;;;20.90;99.90;;;;;;5047366;28;20052;-85
2021/06/17 05:28:20;;;;;;;31.20;9.98;;;20.90;99.90;;;;;;5044718;28;20037;-84
2021/06/17 05:30:46;;;;;;;26.83;10.88;;;20.90;99.90;;;;;;5045829;28;20477;-85
2021/06/17 05:33:11;;;;;;;29.23;11.35;;;20.90;99.90;;;;;;5049311;28;20025;-84
2021/06/17 05:35:38;;;;;;;30.80;10.63;;;21.00;99.90;;;;;;5044473;28;20067;-85
2021/06/17 05:38:04;;;;;;;31.42;11.05;;;20.90;99.90;;;;;;5051037;28;20029;-85
2021/06/17 05:40:30;;;;;;;25.60;11.07;;;20.90;99.90;;;;;;5044107;28;20025;-85
2021/06/17 05:42:56;;;;;;;28.33;11.00;;;21.00;99.90;;;;;;5049838;28;20217;-85
2021/06/17 05:45:22;;;;;;;34.00;10.63;;;21.00;99.90;;;;;;5043077;28;20104;-86
2021/06/17 05:47:48;;;;;;;34.28;10.38;;;21.00;99.90;;;;;;5049486;28;20025;-86
2021/06/17 05:50:14;;;;;;;25.55;10.48;;;20.90;99.90;;;;;;5041464;28;20580;-85
2021/06/17 05:52:39;;;;;;;29.05;11.30;;;20.90;99.90;;;;;;5049762;28;20029;-86
2021/06/17 05:55:08;;;;;;;29.50;11.73;;;20.90;99.90;;;;;;5049435;28;20025;-85
2021/06/17 05:57:36;;;;;;;30.52;12.00;;;20.90;99.90;;;;;;5049559;28;20182;-85
2021/06/17 06:00:05;;;;;;;26.10;11.60;;;20.90;99.90;;;;;;5049807;28;20036;-85
2021/06/17 06:02:31;;;;;;;30.80;11.07;;;20.90;99.90;;;;;;5049657;28;20109;-85
2021/06/17 06:04:56;;;;;;;25.20;11.23;;;21.00;99.90;;;;;;5040670;28;20112;-83
2021/06/17 06:07:22;;;;;;;27.13;10.65;;;21.00;99.90;;;;;;5049696;28;20151;-83
2021/06/17 06:09:47;;;;;;;27.85;10.85;;;21.00;99.90;;;;;;5041565;28;20383;-83
2021/06/17 06:12:14;;;;;;;27.92;10.52;;;21.10;99.90;;;;;;5046024;28;20032;-83
2021/06/17 06:14:40;;;;;;;29.50;10.25;;;21.20;99.90;;;;;;5042133;28;20036;-83
2021/06/17 06:17:06;;;;;;;31.77;11.00;;;21.20;99.90;;;;;;5033323;28;20025;-82
2021/06/17 06:19:33;;;;;;;31.02;11.75;;;21.20;99.90;;;;;;5041061;28;20481;-83
2021/06/17 06:21:59;;;;;;;26.00;11.10;;;21.10;99.90;;;;;;5049247;28;20052;-84
2021/06/17 06:24:25;;;;;;;27.63;11.18;;;21.10;99.90;;;;;;5040449;28;20098;-83
2021/06/17 06:26:52;;;;;;;27.77;12.25;;;21.00;99.90;;;;;;5064531;28;20028;-83
2021/06/17 06:29:18;;;;;;;21.85;10.80;;;21.10;99.90;;;;;;5040515;28;20569;-85
2021/06/17 06:31:43;;;;;;;27.63;11.05;;;21.20;99.90;;;;;;5049478;28;20151;-84
2021/06/17 06:34:10;;;;;;;24.20;11.25;;;21.20;99.90;;;;;;5046369;28;20031;-90
2021/06/17 06:36:35;;;;;;;30.23;10.80;;;21.20;99.90;;;;;;5042117;28;20022;-90
2021/06/17 06:39:01;;;;;;;23.75;10.80;;;21.10;99.90;;;;;;5045300;28;20032;-91
2021/06/17 06:41:27;;;;;;;27.85;11.35;;;21.20;99.90;;;;;;5043066;28;20052;-91
2021/06/17 06:43:52;;;;;;;26.13;11.05;;;21.20;99.90;;;;;;5049168;28;20025;-90
2021/06/17 06:46:18;;;;;;;31.02;10.63;;;21.10;99.90;;;;;;5049019;28;20555;-88
2021/06/17 06:48:44;;;;;;;28.20;10.50;;;21.10;99.90;;;;;;5049713;28;20086;-89
2021/06/17 06:51:11;;;;;;;21.08;10.65;;;21.00;99.90;;;;;;5042954;28;20037;-89
2021/06/17 06:53:36;;;;;;;33.15;11.40;;;21.00;99.90;;;;;;5048192;28;20393;-89
2021/06/17 06:56:02;;;;;;;25.00;11.20;;;21.10;99.90;;;;;;5048853;28;20021;-91
2021/06/17 06:58:28;;;;;;;19.73;10.73;;;21.30;99.90;;;;;;5049454;28;20060;-89
2021/06/17 07:00:54;;;;;;;19.45;10.05;;;21.30;99.90;;;;;;5043831;28;20507;-89
2021/06/17 07:03:20;;;;;;;30.27;11.23;;;21.40;99.90;;;;;;5047636;28;20548;-89
2021/06/17 07:05:45;;;;;;;25.50;10.32;;;21.40;99.90;;;;;;5048501;28;20056;-88
2021/06/17 07:08:11;;;;;;;31.40;10.50;;;21.30;99.90;;;;;;5043033;28;20482;-88
2021/06/17 07:10:40;;;;;;;22.20;10.43;;;21.40;99.90;;;;;;5041552;28;20029;-90
2021/06/17 07:13:06;;;;;;;26.35;10.98;;;21.50;99.90;;;;;;5050658;28;20025;-89
2021/06/17 07:15:31;;;;;;;24.95;10.75;;;21.60;99.90;;;;;;5038965;28;20576;-90
2021/06/17 07:17:57;;;;;;;28.40;10.50;;;21.50;99.90;;;;;;5048888;28;20025;-91
2021/06/17 07:20:23;;;;;;;29.30;11.32;;;21.50;99.90;;;;;;5045414;28;20052;-90
2021/06/17 07:22:54;;;;;;;26.13;10.85;;;21.40;99.90;;;;;;5049449;28;20067;-88
2021/06/17 07:25:20;;;;;;;26.65;11.07;;;21.30;99.90;;;;;;5046192;28;20028;-89
2021/06/17 07:27:45;;;;;;;25.98;10.15;;;21.30;99.90;;;;;;5048445;28;20033;-90
2021/06/17 07:30:12;;;;;;;28.17;10.55;;;21.30;99.90;;;;;;5043408;28;20028;-91
2021/06/17 07:32:37;;;;;;;33.70;10.85;;;21.40;99.90;;;;;;5050766;28;20020;-89
2021/06/17 07:35:03;;;;;;;30.33;10.40;;;21.60;99.90;;;;;;5047534;28;20381;-92
2021/06/17 07:37:29;;;;;;;23.55;10.25;;;21.70;99.90;;;;;;5052416;28;20082;-90
2021/06/17 07:39:55;;;;;;;22.35;9.32;;;21.80;99.90;;;;;;5051532;28;20020;-90
2021/06/17 07:42:20;;;;;;;22.70;8.88;;;22.00;99.90;;;;;;5052541;28;20060;-88
2021/06/17 07:44:47;;;;;;;22.63;9.77;;;21.90;99.90;;;;;;5051492;28;20025;-87
2021/06/17 07:47:13;;;;;;;20.20;8.75;;;21.90;99.90;;;;;;5051555;28;20560;-90
2021/06/17 07:49:39;;;;;;;21.27;9.02;;;22.00;99.90;;;;;;5046186;28;20113;-92
2021/06/17 07:52:05;;;;;;;18.35;8.50;;;22.00;99.90;;;;;;5051588;28;20017;-88
2021/06/17 07:54:30;;;;;;;22.70;9.38;;;22.00;99.90;;;;;;5046630;28;20029;-89
2021/06/17 07:56:57;;;;;;;23.75;9.82;;;22.20;99.90;;;;;;5048054;28;20045;-91
2021/06/17 07:59:23;;;;;;;22.92;9.43;;;22.40;99.90;;;;;;5051489;28;20385;-91
2021/06/17 08:01:50;;;;;;;22.80;8.75;;;22.40;99.90;;;;;;5050171;28;20036;-90
2021/06/17 08:04:17;;;;;;;15.68;8.00;;;22.40;99.90;;;;;;5051048;28;20033;-89
2021/06/17 08:07:07;;;;;;;16.30;7.38;;;22.40;99.90;;;;;;5055671;28;20005;-88
2021/06/17 08:09:33;;;;;;;18.88;7.78;;;22.40;99.90;;;;;;5070946;28;20068;-90
2021/06/17 08:11:59;;;;;;;17.88;7.07;;;22.50;99.90;;;;;;5051858;28;20060;-92
2021/06/17 08:14:25;;;;;;;13.55;7.53;;;22.50;99.90;;;;;;5042843;28;20018;-92
2021/06/17 08:16:52;;;;;;;19.50;7.70;;;22.50;99.90;;;;;;5042095;28;20024;-90
2021/06/17 08:19:25;;;;;;;15.95;6.70;;;22.50;99.90;;;;;;5051803;28;20070;-94
2021/06/17 08:21:50;;;;;;;12.50;6.90;;;22.60;99.90;;;;;;5085925;28;20067;-89
2021/06/17 08:24:16;;;;;;;13.10;6.97;;;22.50;99.90;;;;;;5044370;28;20064;-92
2021/06/17 08:26:42;;;;;;;13.85;6.93;;;22.50;99.90;;;;;;5059981;28;20032;-91
2021/06/17 08:29:08;;;;;;;16.17;7.68;;;22.60;99.90;;;;;;5060703;28;20036;-90
2021/06/17 08:31:33;;;;;;;15.38;6.40;;;22.50;99.90;;;;;;5068337;28;20016;-90
2021/06/17 08:33:59;;;;;;;12.55;7.22;;;22.50;99.90;;;;;;5067739;28;20079;-88
2021/06/17 08:36:25;;;;;;;14.63;6.75;;;22.60;99.90;;;;;;5089764;28;20036;-88
2021/06/17 08:38:50;;;;;;;15.02;7.20;;;22.70;99.90;;;;;;5049841;28;20021;-88
2021/06/17 08:41:16;;;;;;;9.65;6.80;;;22.80;99.90;;;;;;5058553;28;20072;-88
2021/06/17 08:43:42;;;;;;;11.25;7.57;;;22.90;99.90;;;;;;5051781;28;20025;-85
2021/06/17 08:46:08;;;;;;;12.23;6.88;;;23.00;99.90;;;;;;5043373;28;20029;-88
2021/06/17 08:48:34;;;;;;;12.70;6.75;;;23.10;99.90;;;;;;5054978;28;20029;-85
2021/06/17 08:50:59;;;;;;;12.85;6.47;;;23.20;99.90;;;;;;5051737;28;20096;-85
2021/06/17 08:53:25;;;;;;;14.05;8.48;;;23.30;99.90;;;;;;5050669;28;20029;-82
2021/06/17 08:55:51;;;;;;;14.23;6.60;;;23.10;99.90;;;;;;5041973;28;20025;-79
2021/06/17 08:58:18;;;;;;;10.80;7.10;;;23.30;99.90;;;;;;5082729;28;20043;-79
2021/06/17 09:00:49;;;;;;;13.20;6.43;;;23.30;99.90;;;;;;5041792;28;20056;-80
2021/06/17 09:03:17;;;;;;;15.25;6.45;;;23.30;99.90;;;;;;5050218;28;20576;-80
2021/06/17 09:05:50;;;;;;;11.95;6.57;;;23.50;99.90;;;;;;5050939;28;20032;-83
2021/06/17 09:08:24;;;;;;;13.95;7.47;;;23.50;99.90;;;;;;5048992;28;20040;-83
2021/06/17 09:10:49;;;;;;;14.30;6.45;;;23.40;99.90;;;;;;5046404;28;20507;-82
2021/06/17 09:13:15;;;;;;;12.45;6.88;;;23.50;99.90;;;;;;5050096;28;20037;-83
2021/06/17 09:15:54;;;;;;;11.35;6.75;;;23.80;99.90;;;;;;5035144;28;20025;-82
2021/06/17 09:18:23;;;;;;;14.90;6.68;;;23.90;99.90;;;;;;5038825;28;20030;-83
2021/06/17 09:20:49;;;;;;;16.10;7.00;;;23.60;99.90;;;;;;5047422;28;20025;-84
2021/06/17 09:23:22;;;;;;;13.52;6.90;;;23.50;99.90;;;;;;5045830;28;20367;-83
2021/06/17 09:25:54;;;;;;;9.50;6.22;;;23.60;99.90;;;;;;5047088;28;20029;-83
2021/06/17 09:28:20;;;;;;;13.13;7.03;;;23.70;99.90;;;;;;5044685;28;20045;-82
2021/06/17 09:30:46;;;;;;;12.75;6.25;;;23.60;99.90;;;;;;5045898;28;20021;-82
2021/06/17 09:33:15;;;;;;;11.73;6.50;;;23.40;99.90;;;;;;5045931;28;20116;-82
2021/06/17 09:35:55;;;;;;;11.88;6.65;;;23.30;99.90;;;;;;5045834;28;20497;-82
2021/06/17 09:38:22;;;;;;;12.90;6.40;;;23.30;99.90;;;;;;5049520;28;20025;-82
2021/06/17 09:40:52;;;;;;;9.93;6.95;;;23.30;99.90;;;;;;5044574;28;20048;-83
2021/06/17 09:43:28;;;;;;;13.18;7.03;;;23.30;99.90;;;;;;5049456;28;20100;-82
2021/06/17 09:46:09;;;;;;;11.65;6.95;;;23.30;99.90;;;;;;5043818;28;20453;-82
2021/06/17 09:48:39;;;;;;;12.55;7.07;;;23.40;99.90;;;;;;5045193;28;20128;-82
2021/06/17 09:51:38;;;;;;;11.00;6.40;;;23.50;99.90;;;;;;5044615;28;20055;-82
2021/06/17 09:54:23;;;;;;;13.95;7.32;;;23.60;99.90;;;;;;5046662;28;20517;-81
2021/06/17 09:56:52;;;;;;;13.43;9.40;;;23.50;99.90;;;;;;5043973;28;20060;-82
2021/06/17 09:59:35;;;;;;;12.30;6.82;;;23.50;99.90;;;;;;5072308;28;20125;-82
2021/06/17 10:02:02;;;;;;;14.52;6.70;;;23.60;99.90;;;;;;5049320;28;20519;-84
2021/06/17 10:04:28;;;;;;;13.25;7.35;;;23.50;99.90;;;;;;5040928;28;20040;-83
2021/06/17 10:06:54;;;;;;;12.90;6.47;;;23.60;99.90;;;;;;5049794;28;20017;-83
2021/06/17 10:09:19;;;;;;;9.52;6.13;;;23.90;99.90;;;;;;5045302;28;20056;-83
2021/06/17 10:11:47;;;;;;;8.88;6.40;;;24.20;99.90;;;;;;5047810;28;20092;-81
2021/06/17 10:14:13;;;;;;;11.23;6.72;;;24.20;99.90;;;;;;5046261;28;20111;-82
2021/06/17 10:16:42;;;;;;;13.77;6.28;;;24.10;99.90;;;;;;5046485;28;20021;-83
2021/06/17 10:19:15;;;;;;;19.73;8.90;;;24.20;99.90;;;;;;5047101;28;20037;-84
2021/06/17 10:21:42;;;;;;;230.82;92.40;;;24.30;99.90;;;;;;5045752;28;20024;-82
2021/06/17 10:24:15;;;;;;;30.85;13.45;;;24.20;99.90;;;;;;5032994;28;20028;-83
2021/06/17 10:26:49;;;;;;;20.85;8.75;;;24.20;99.90;;;;;;5039909;28;20358;-83
2021/06/17 10:29:42;;;;;;;16.50;7.38;;;24.20;99.90;;;;;;5049818;28;20033;-82
2021/06/17 10:32:16;;;;;;;16.15;7.57;;;24.20;99.90;;;;;;5029598;28;20029;-82
2021/06/17 10:34:47;;;;;;;22.33;9.70;;;24.20;99.90;;;;;;5038633;28;20087;-82
2021/06/17 10:37:21;;;;;;;26.48;11.77;;;24.10;99.90;;;;;;5043442;28;20017;-82
2021/06/17 10:40:10;;;;;;;19.15;10.27;;;24.10;99.90;;;;;;5045040;28;20044;-82
2021/06/17 10:42:37;;;;;;;10.93;6.65;;;23.90;99.90;;;;;;5036527;28;20191;-82
2021/06/17 10:45:13;;;;;;;11.40;6.10;;;23.70;99.90;;;;;;5046246;28;20021;-82
2021/06/17 10:47:49;;;;;;;24.55;11.23;;;23.80;99.90;;;;;;5049398;28;20025;-82
2021/06/17 10:50:20;;;;;;;12.52;6.43;;;24.00;99.90;;;;;;5045067;28;20567;-82
2021/06/17 10:53:07;;;;;;;13.40;7.50;;;24.00;99.90;;;;;;5052794;28;20397;-82
2021/06/17 10:55:53;;;;;;;15.80;6.93;;;24.00;99.90;;;;;;5036045;28;20401;-82
2021/06/17 10:58:41;;;;;;;9.45;6.00;;;23.70;99.90;;;;;;5051180;28;20397;-82
2021/06/17 11:01:22;;;;;;;13.30;6.40;;;23.50;99.90;;;;;;5053022;28;20033;-82
2021/06/17 11:04:08;;;;;;;11.55;6.30;;;23.30;99.90;;;;;;5044192;28;20032;-82
2021/06/17 11:06:49;;;;;;;10.82;6.70;;;23.30;99.90;;;;;;5056056;28;20045;-82
2021/06/17 11:09:49;;;;;;;10.80;6.50;;;23.40;99.90;;;;;;5044029;28;20064;-82
2021/06/17 11:12:18;;;;;;;15.10;6.95;;;23.80;99.90;;;;;;5042798;28;20029;-82
2021/06/17 11:14:49;;;;;;;12.50;6.22;;;23.50;99.90;;;;;;5044089;28;20075;-82
2021/06/17 11:17:29;;;;;;;10.60;6.18;;;23.60;99.90;;;;;;5050256;28;20021;-82
2021/06/17 11:20:23;;;;;;;12.68;6.45;;;23.60;99.90;;;;;;5035276;28;20045;-82
2021/06/17 11:23:07;;;;;;;17.10;6.65;;;23.80;99.90;;;;;;5051670;28;20017;-82
2021/06/17 11:25:37;;;;;;;12.70;6.07;;;24.10;99.90;;;;;;5042873;28;20044;-82
2021/06/17 11:28:09;;;;;;;15.48;6.00;;;24.60;99.90;;;;;;5041885;28;20025;-82
2021/06/17 11:30:38;;;;;;;10.95;5.97;;;24.80;99.90;;;;;;5041308;28;20147;-82
2021/06/17 11:33:19;;;;;;;10.77;5.50;;;24.40;99.90;;;;;;5049773;28;20096;-82
2021/06/17 11:35:54;;;;;;;16.15;6.35;;;24.60;99.90;;;;;;5050491;28;20039;-82
2021/06/17 11:38:29;;;;;;;11.40;5.45;;;25.00;99.90;;;;;;5051852;28;20510;-81
2021/06/17 11:40:57;;;;;;;11.52;5.70;;;24.90;99.90;;;;;;5039126;28;20021;-82
2021/06/17 11:43:24;;;;;;;11.15;5.40;;;25.30;99.90;;;;;;5047206;28;20393;-82
2021/06/17 11:45:49;;;;;;;11.57;5.47;;;25.50;99.90;;;;;;5038283;28;20029;-82
2021/06/17 11:48:15;;;;;;;10.90;5.38;;;25.40;99.90;;;;;;5047128;28;20036;-82
2021/06/17 11:50:43;;;;;;;12.27;5.47;;;25.10;99.90;;;;;;5052200;28;20040;-82
2021/06/17 11:53:18;;;;;;;10.18;5.53;;;24.90;99.90;;;;;;5047832;28;20014;-81
2021/06/17 11:55:46;;;;;;;10.98;5.72;;;24.80;99.90;;;;;;5048072;28;20486;-80
2021/06/17 11:58:11;;;;;;;12.20;5.63;;;24.60;99.90;;;;;;5048039;28;20061;-82
2021/06/17 12:00:37;;;;;;;13.27;5.40;;;24.60;99.90;;;;;;5046646;28;20474;-80
2021/06/17 12:03:24;;;;;;;10.07;5.35;;;24.60;99.90;;;;;;5049244;28;20433;-80
2021/06/17 12:06:09;;;;;;;10.70;5.72;;;24.60;99.90;;;;;;5048400;28;20029;-80
2021/06/17 12:08:35;;;;;;;9.35;5.38;;;24.10;99.90;;;;;;5043561;28;20122;-81
2021/06/17 12:11:15;;;;;;;9.88;5.60;;;24.10;99.90;;;;;;5049662;28;20049;-80
2021/06/17 12:13:49;;;;;;;12.48;5.57;;;24.10;99.90;;;;;;5051143;28;20362;-80
2021/06/17 12:16:18;;;;;;;13.68;5.47;;;24.30;99.90;;;;;;5046704;28;20017;-79
2021/06/17 12:18:43;;;;;;;10.23;4.93;;;24.20;99.90;;;;;;5051078;28;20451;-81
2021/06/17 12:21:09;;;;;;;12.30;5.63;;;24.20;99.90;;;;;;5045449;28;20025;-79
2021/06/17 12:23:35;;;;;;;8.60;5.32;;;23.90;99.90;;;;;;5050685;28;20068;-79
2021/06/17 12:26:08;;;;;;;13.38;5.85;;;24.00;99.90;;;;;;5034880;28;20021;-79
2021/06/17 12:28:51;;;;;;;8.52;4.78;;;24.00;99.90;;;;;;5047786;28;20094;-79
2021/06/17 12:31:35;;;;;;;9.85;4.88;;;24.10;99.90;;;;;;5043248;28;20033;-79
2021/06/17 12:34:09;;;;;;;8.38;4.57;;;24.30;99.90;;;;;;5049239;28;20028;-80
2021/06/17 12:36:35;;;;;;;11.10;5.05;;;24.20;99.90;;;;;;5044174;28;20493;-79
2021/06/17 12:39:12;;;;;;;9.77;4.47;;;24.50;99.90;;;;;;5049354;28;20021;-79
2021/06/17 12:41:49;;;;;;;9.07;4.80;;;24.30;99.90;;;;;;5043846;28;20032;-79
2021/06/17 12:44:35;;;;;;;10.27;5.30;;;24.00;99.90;;;;;;5046579;28;20609;-80
2021/06/17 12:47:04;;;;;;;8.77;4.55;;;23.70;99.90;;;;;;5045378;28;20504;-79
2021/06/17 12:52:25;;;;;;;;;;;23.50;99.90;;;;;;5047316;28;20054;-79